sensor_id;sensor_type;location;lat;lon;timestamp;P1;durP1;ratioP1;P2;durP2;ratioP2
37895;SDS011;23733;53.254;10.430;2023-07-08T00:00:50;4.73;;;2.70;;
37895;SDS011;23733;53.254;10.430;2023-07-08T00:03:17;4.77;;;2.80;;
37895;SDS011;23733;53.254;10.430;2023-07-08T00:05:44;5.23;;;2.40;;
37895;SDS011;23733;53.254;10.430;2023-07-08T00:08:12;5.53;;;3.27;;
37895;SDS011;23733;53.254;10.430;2023-07-08T00:10:43;5.93;;;2.93;;
37895;SDS011;23733;53.254;10.430;2023-07-08T00:13:09;3.93;;;2.53;;
37895;SDS011;23733;53.254;10.430;2023-07-08T00:15:36;7.73;;;2.80;;
37895;SDS011;23733;53.254;10.430;2023-07-08T00:18:13;5.53;;;2.97;;
37895;SDS011;23733;53.254;10.430;2023-07-08T00:20:42;4.77;;;2.80;;
37895;SDS011;23733;53.254;10.430;2023-07-08T00:23:10;4.40;;;2.90;;
37895;SDS011;23733;53.254;10.430;2023-07-08T00:25:37;4.37;;;3.17;;
37895;SDS011;23733;53.254;10.430;2023-07-08T00:28:16;8.03;;;2.90;;
37895;SDS011;23733;53.254;10.430;2023-07-08T00:30:44;6.87;;;3.07;;
37895;SDS011;23733;53.254;10.430;2023-07-08T00:33:11;5.53;;;3.40;;
37895;SDS011;23733;53.254;10.430;2023-07-08T00:35:38;6.93;;;2.77;;
37895;SDS011;23733;53.254;10.430;2023-07-08T00:38:26;5.33;;;3.10;;
37895;SDS011;23733;53.254;10.430;2023-07-08T00:43:36;6.50;;;2.77;;
37895;SDS011;23733;53.254;10.430;2023-07-08T00:48:56;5.53;;;3.40;;
37895;SDS011;23733;53.254;10.430;2023-07-08T00:51:33;6.27;;;3.00;;
37895;SDS011;23733;53.254;10.430;2023-07-08T00:54:04;4.87;;;3.30;;
37895;SDS011;23733;53.254;10.430;2023-07-08T00:56:32;5.37;;;3.00;;
37895;SDS011;23733;53.254;10.430;2023-07-08T00:59:07;6.03;;;3.00;;
37895;SDS011;23733;53.254;10.430;2023-07-08T01:01:36;4.60;;;3.23;;
37895;SDS011;23733;53.254;10.430;2023-07-08T01:04:07;5.67;;;2.63;;
37895;SDS011;23733;53.254;10.430;2023-07-08T01:06:39;4.90;;;3.10;;
37895;SDS011;23733;53.254;10.430;2023-07-08T01:09:09;4.43;;;3.00;;
37895;SDS011;23733;53.254;10.430;2023-07-08T01:11:37;4.67;;;2.70;;
37895;SDS011;23733;53.254;10.430;2023-07-08T01:14:06;4.60;;;3.00;;
37895;SDS011;23733;53.254;10.430;2023-07-08T01:16:35;5.07;;;2.90;;
37895;SDS011;23733;53.254;10.430;2023-07-08T01:19:01;6.03;;;2.83;;
37895;SDS011;23733;53.254;10.430;2023-07-08T01:21:31;4.17;;;2.67;;
37895;SDS011;23733;53.254;10.430;2023-07-08T01:23:59;6.07;;;2.90;;
37895;SDS011;23733;53.254;10.430;2023-07-08T01:26:26;4.37;;;2.90;;
37895;SDS011;23733;53.254;10.430;2023-07-08T01:28:54;7.13;;;3.13;;
37895;SDS011;23733;53.254;10.430;2023-07-08T01:31:21;5.23;;;3.00;;
37895;SDS011;23733;53.254;10.430;2023-07-08T01:33:48;4.50;;;3.10;;
37895;SDS011;23733;53.254;10.430;2023-07-08T01:36:14;7.33;;;3.20;;
37895;SDS011;23733;53.254;10.430;2023-07-08T01:38:40;6.90;;;3.03;;
37895;SDS011;23733;53.254;10.430;2023-07-08T01:41:10;6.63;;;3.20;;
37895;SDS011;23733;53.254;10.430;2023-07-08T01:43:37;5.20;;;2.93;;
37895;SDS011;23733;53.254;10.430;2023-07-08T01:46:03;6.77;;;3.00;;
37895;SDS011;23733;53.254;10.430;2023-07-08T01:48:35;4.67;;;3.10;;
37895;SDS011;23733;53.254;10.430;2023-07-08T01:51:06;7.17;;;3.23;;
37895;SDS011;23733;53.254;10.430;2023-07-08T01:53:33;6.50;;;3.20;;
37895;SDS011;23733;53.254;10.430;2023-07-08T01:56:00;4.23;;;3.43;;
37895;SDS011;23733;53.254;10.430;2023-07-08T01:58:26;6.10;;;3.27;;
37895;SDS011;23733;53.254;10.430;2023-07-08T02:00:53;8.00;;;3.20;;
37895;SDS011;23733;53.254;10.430;2023-07-08T02:03:20;7.73;;;3.10;;
37895;SDS011;23733;53.254;10.430;2023-07-08T02:05:46;5.03;;;3.13;;
37895;SDS011;23733;53.254;10.430;2023-07-08T02:08:12;5.30;;;3.00;;
37895;SDS011;23733;53.254;10.430;2023-07-08T02:10:39;8.33;;;3.20;;
37895;SDS011;23733;53.254;10.430;2023-07-08T02:13:06;5.47;;;3.10;;
37895;SDS011;23733;53.254;10.430;2023-07-08T02:15:32;6.07;;;3.63;;
37895;SDS011;23733;53.254;10.430;2023-07-08T02:17:59;6.37;;;3.17;;
37895;SDS011;23733;53.254;10.430;2023-07-08T02:20:25;7.67;;;3.70;;
37895;SDS011;23733;53.254;10.430;2023-07-08T02:22:51;4.30;;;3.20;;
37895;SDS011;23733;53.254;10.430;2023-07-08T02:25:18;7.20;;;3.40;;
37895;SDS011;23733;53.254;10.430;2023-07-08T02:27:44;7.47;;;3.47;;
37895;SDS011;23733;53.254;10.430;2023-07-08T02:30:10;5.33;;;3.37;;
37895;SDS011;23733;53.254;10.430;2023-07-08T02:32:36;4.83;;;3.10;;
37895;SDS011;23733;53.254;10.430;2023-07-08T02:35:08;3.80;;;2.80;;
37895;SDS011;23733;53.254;10.430;2023-07-08T02:37:34;4.97;;;3.00;;
37895;SDS011;23733;53.254;10.430;2023-07-08T02:40:01;7.60;;;3.40;;
37895;SDS011;23733;53.254;10.430;2023-07-08T02:42:27;6.33;;;3.40;;
37895;SDS011;23733;53.254;10.430;2023-07-08T02:44:53;6.83;;;3.40;;
37895;SDS011;23733;53.254;10.430;2023-07-08T02:47:20;6.40;;;3.40;;
37895;SDS011;23733;53.254;10.430;2023-07-08T02:49:46;6.37;;;3.60;;
37895;SDS011;23733;53.254;10.430;2023-07-08T02:52:12;4.40;;;3.10;;
37895;SDS011;23733;53.254;10.430;2023-07-08T02:54:39;4.53;;;3.13;;
37895;SDS011;23733;53.254;10.430;2023-07-08T02:57:05;5.63;;;3.10;;
37895;SDS011;23733;53.254;10.430;2023-07-08T02:59:31;5.73;;;3.10;;
37895;SDS011;23733;53.254;10.430;2023-07-08T03:01:57;5.10;;;3.20;;
37895;SDS011;23733;53.254;10.430;2023-07-08T03:04:23;6.33;;;2.97;;
37895;SDS011;23733;53.254;10.430;2023-07-08T03:06:50;4.97;;;3.33;;
37895;SDS011;23733;53.254;10.430;2023-07-08T03:09:16;5.20;;;3.20;;
37895;SDS011;23733;53.254;10.430;2023-07-08T03:11:43;4.10;;;3.07;;
37895;SDS011;23733;53.254;10.430;2023-07-08T03:14:09;4.43;;;3.13;;
37895;SDS011;23733;53.254;10.430;2023-07-08T03:16:35;6.23;;;2.83;;
37895;SDS011;23733;53.254;10.430;2023-07-08T03:19:01;8.87;;;4.00;;
37895;SDS011;23733;53.254;10.430;2023-07-08T03:21:27;5.47;;;3.17;;
37895;SDS011;23733;53.254;10.430;2023-07-08T03:23:53;6.20;;;3.60;;
37895;SDS011;23733;53.254;10.430;2023-07-08T03:26:23;4.20;;;3.07;;
37895;SDS011;23733;53.254;10.430;2023-07-08T03:28:51;6.20;;;3.00;;
37895;SDS011;23733;53.254;10.430;2023-07-08T03:31:17;8.50;;;3.43;;
37895;SDS011;23733;53.254;10.430;2023-07-08T03:33:43;4.60;;;3.50;;
37895;SDS011;23733;53.254;10.430;2023-07-08T03:36:10;7.53;;;3.53;;
37895;SDS011;23733;53.254;10.430;2023-07-08T03:38:51;6.17;;;3.40;;
37895;SDS011;23733;53.254;10.430;2023-07-08T03:41:19;7.07;;;3.40;;
37895;SDS011;23733;53.254;10.430;2023-07-08T03:43:45;5.87;;;3.10;;
37895;SDS011;23733;53.254;10.430;2023-07-08T03:46:12;7.70;;;3.50;;
37895;SDS011;23733;53.254;10.430;2023-07-08T03:48:39;7.93;;;3.10;;
37895;SDS011;23733;53.254;10.430;2023-07-08T03:51:10;8.73;;;3.50;;
37895;SDS011;23733;53.254;10.430;2023-07-08T03:53:47;6.67;;;3.50;;
37895;SDS011;23733;53.254;10.430;2023-07-08T03:56:13;7.57;;;3.73;;
37895;SDS011;23733;53.254;10.430;2023-07-08T03:58:40;6.07;;;3.77;;
37895;SDS011;23733;53.254;10.430;2023-07-08T04:01:12;6.13;;;3.50;;
37895;SDS011;23733;53.254;10.430;2023-07-08T04:03:39;4.27;;;3.07;;
37895;SDS011;23733;53.254;10.430;2023-07-08T04:06:06;5.53;;;3.40;;
37895;SDS011;23733;53.254;10.430;2023-07-08T04:08:32;6.00;;;3.43;;
37895;SDS011;23733;53.254;10.430;2023-07-08T04:10:58;4.00;;;3.37;;
37895;SDS011;23733;53.254;10.430;2023-07-08T04:13:25;4.57;;;3.40;;
37895;SDS011;23733;53.254;10.430;2023-07-08T04:15:52;5.73;;;3.63;;
37895;SDS011;23733;53.254;10.430;2023-07-08T04:18:20;6.80;;;3.73;;
37895;SDS011;23733;53.254;10.430;2023-07-08T04:20:47;5.67;;;3.33;;
37895;SDS011;23733;53.254;10.430;2023-07-08T04:23:18;4.80;;;3.27;;
37895;SDS011;23733;53.254;10.430;2023-07-08T04:25:44;4.60;;;3.03;;
37895;SDS011;23733;53.254;10.430;2023-07-08T04:28:11;4.03;;;3.10;;
37895;SDS011;23733;53.254;10.430;2023-07-08T04:30:37;6.13;;;3.53;;
37895;SDS011;23733;53.254;10.430;2023-07-08T04:33:11;6.17;;;2.93;;
37895;SDS011;23733;53.254;10.430;2023-07-08T04:35:38;4.63;;;3.00;;
37895;SDS011;23733;53.254;10.430;2023-07-08T04:38:06;4.47;;;2.90;;
37895;SDS011;23733;53.254;10.430;2023-07-08T04:40:39;5.00;;;3.30;;
37895;SDS011;23733;53.254;10.430;2023-07-08T04:43:06;7.77;;;3.40;;
37895;SDS011;23733;53.254;10.430;2023-07-08T04:45:32;5.23;;;3.07;;
37895;SDS011;23733;53.254;10.430;2023-07-08T04:47:59;4.60;;;2.97;;
37895;SDS011;23733;53.254;10.430;2023-07-08T04:50:25;5.43;;;3.30;;
37895;SDS011;23733;53.254;10.430;2023-07-08T04:52:51;3.70;;;3.00;;
37895;SDS011;23733;53.254;10.430;2023-07-08T04:55:17;5.67;;;3.00;;
37895;SDS011;23733;53.254;10.430;2023-07-08T04:57:44;6.63;;;3.00;;
37895;SDS011;23733;53.254;10.430;2023-07-08T05:00:12;4.57;;;3.00;;
37895;SDS011;23733;53.254;10.430;2023-07-08T05:02:41;3.60;;;2.80;;
37895;SDS011;23733;53.254;10.430;2023-07-08T05:05:07;3.90;;;2.97;;
37895;SDS011;23733;53.254;10.430;2023-07-08T05:07:33;3.43;;;2.80;;
37895;SDS011;23733;53.254;10.430;2023-07-08T05:10:00;4.30;;;2.90;;
37895;SDS011;23733;53.254;10.430;2023-07-08T05:12:26;4.53;;;3.30;;
37895;SDS011;23733;53.254;10.430;2023-07-08T05:14:52;8.10;;;3.17;;
37895;SDS011;23733;53.254;10.430;2023-07-08T05:17:19;6.33;;;3.00;;
37895;SDS011;23733;53.254;10.430;2023-07-08T05:19:45;3.73;;;2.60;;
37895;SDS011;23733;53.254;10.430;2023-07-08T05:22:12;2.90;;;2.60;;
37895;SDS011;23733;53.254;10.430;2023-07-08T05:24:38;7.87;;;2.73;;
37895;SDS011;23733;53.254;10.430;2023-07-08T05:27:04;4.43;;;2.83;;
37895;SDS011;23733;53.254;10.430;2023-07-08T05:29:30;3.57;;;2.53;;
37895;SDS011;23733;53.254;10.430;2023-07-08T05:31:56;3.43;;;2.63;;
37895;SDS011;23733;53.254;10.430;2023-07-08T05:34:22;4.63;;;2.87;;
37895;SDS011;23733;53.254;10.430;2023-07-08T05:36:48;4.20;;;2.53;;
37895;SDS011;23733;53.254;10.430;2023-07-08T05:39:14;5.17;;;2.77;;
37895;SDS011;23733;53.254;10.430;2023-07-08T05:41:40;5.50;;;2.60;;
37895;SDS011;23733;53.254;10.430;2023-07-08T05:44:06;4.40;;;2.80;;
37895;SDS011;23733;53.254;10.430;2023-07-08T05:46:32;6.03;;;2.90;;
37895;SDS011;23733;53.254;10.430;2023-07-08T05:48:59;4.47;;;2.67;;
37895;SDS011;23733;53.254;10.430;2023-07-08T05:51:25;3.97;;;2.77;;
37895;SDS011;23733;53.254;10.430;2023-07-08T05:53:52;4.23;;;2.50;;
37895;SDS011;23733;53.254;10.430;2023-07-08T05:56:18;4.23;;;2.67;;
37895;SDS011;23733;53.254;10.430;2023-07-08T05:58:44;3.10;;;2.50;;
37895;SDS011;23733;53.254;10.430;2023-07-08T06:01:10;5.73;;;2.57;;
37895;SDS011;23733;53.254;10.430;2023-07-08T06:03:37;4.00;;;2.70;;
37895;SDS011;23733;53.254;10.430;2023-07-08T06:06:03;4.73;;;2.57;;
37895;SDS011;23733;53.254;10.430;2023-07-08T06:08:31;4.60;;;2.60;;
37895;SDS011;23733;53.254;10.430;2023-07-08T06:10:58;5.20;;;2.73;;
37895;SDS011;23733;53.254;10.430;2023-07-08T06:13:24;3.23;;;2.20;;
37895;SDS011;23733;53.254;10.430;2023-07-08T06:15:50;5.50;;;2.70;;
37895;SDS011;23733;53.254;10.430;2023-07-08T06:18:16;6.90;;;3.10;;
37895;SDS011;23733;53.254;10.430;2023-07-08T06:20:50;5.70;;;2.90;;
37895;SDS011;23733;53.254;10.430;2023-07-08T06:23:20;2.70;;;2.40;;
37895;SDS011;23733;53.254;10.430;2023-07-08T06:25:46;3.53;;;2.60;;
37895;SDS011;23733;53.254;10.430;2023-07-08T06:28:12;4.03;;;2.60;;
37895;SDS011;23733;53.254;10.430;2023-07-08T06:30:38;6.87;;;2.33;;
37895;SDS011;23733;53.254;10.430;2023-07-08T06:33:04;2.90;;;2.30;;
37895;SDS011;23733;53.254;10.430;2023-07-08T06:35:30;4.63;;;2.73;;
37895;SDS011;23733;53.254;10.430;2023-07-08T06:37:56;6.67;;;2.43;;
37895;SDS011;23733;53.254;10.430;2023-07-08T06:40:22;6.00;;;2.63;;
37895;SDS011;23733;53.254;10.430;2023-07-08T06:42:48;3.90;;;2.57;;
37895;SDS011;23733;53.254;10.430;2023-07-08T06:45:15;3.20;;;2.40;;
37895;SDS011;23733;53.254;10.430;2023-07-08T06:47:41;3.77;;;2.40;;
37895;SDS011;23733;53.254;10.430;2023-07-08T06:50:07;4.10;;;2.30;;
37895;SDS011;23733;53.254;10.430;2023-07-08T06:52:34;4.83;;;2.23;;
37895;SDS011;23733;53.254;10.430;2023-07-08T06:55:03;4.20;;;2.63;;
37895;SDS011;23733;53.254;10.430;2023-07-08T06:57:31;3.33;;;2.43;;
37895;SDS011;23733;53.254;10.430;2023-07-08T06:59:58;5.00;;;2.57;;
37895;SDS011;23733;53.254;10.430;2023-07-08T07:02:24;2.60;;;2.20;;
37895;SDS011;23733;53.254;10.430;2023-07-08T07:04:50;3.50;;;2.30;;
37895;SDS011;23733;53.254;10.430;2023-07-08T07:07:16;3.93;;;2.50;;
37895;SDS011;23733;53.254;10.430;2023-07-08T07:09:42;3.07;;;2.40;;
37895;SDS011;23733;53.254;10.430;2023-07-08T07:12:08;2.93;;;2.17;;
37895;SDS011;23733;53.254;10.430;2023-07-08T07:14:35;3.37;;;2.10;;
37895;SDS011;23733;53.254;10.430;2023-07-08T07:17:01;2.73;;;2.37;;
37895;SDS011;23733;53.254;10.430;2023-07-08T07:19:27;2.40;;;2.13;;
37895;SDS011;23733;53.254;10.430;2023-07-08T07:21:54;5.93;;;2.43;;
37895;SDS011;23733;53.254;10.430;2023-07-08T07:24:20;3.47;;;2.33;;
37895;SDS011;23733;53.254;10.430;2023-07-08T07:26:46;3.37;;;2.20;;
37895;SDS011;23733;53.254;10.430;2023-07-08T07:29:13;2.73;;;2.17;;
37895;SDS011;23733;53.254;10.430;2023-07-08T07:31:41;4.00;;;2.23;;
37895;SDS011;23733;53.254;10.430;2023-07-08T07:34:07;3.43;;;2.30;;
37895;SDS011;23733;53.254;10.430;2023-07-08T07:36:34;3.07;;;2.33;;
37895;SDS011;23733;53.254;10.430;2023-07-08T07:39:00;3.63;;;2.30;;
37895;SDS011;23733;53.254;10.430;2023-07-08T07:41:26;5.13;;;2.10;;
37895;SDS011;23733;53.254;10.430;2023-07-08T07:43:52;6.80;;;2.33;;
37895;SDS011;23733;53.254;10.430;2023-07-08T07:46:18;4.50;;;2.33;;
37895;SDS011;23733;53.254;10.430;2023-07-08T07:48:44;3.17;;;2.30;;
37895;SDS011;23733;53.254;10.430;2023-07-08T07:51:10;3.40;;;2.30;;
37895;SDS011;23733;53.254;10.430;2023-07-08T07:53:37;4.40;;;2.10;;
37895;SDS011;23733;53.254;10.430;2023-07-08T07:56:03;6.13;;;2.30;;
37895;SDS011;23733;53.254;10.430;2023-07-08T07:58:30;2.33;;;2.10;;
37895;SDS011;23733;53.254;10.430;2023-07-08T08:00:56;5.70;;;2.40;;
37895;SDS011;23733;53.254;10.430;2023-07-08T08:03:23;2.90;;;2.17;;
37895;SDS011;23733;53.254;10.430;2023-07-08T08:05:49;3.03;;;2.00;;
37895;SDS011;23733;53.254;10.430;2023-07-08T08:08:16;2.97;;;2.30;;
37895;SDS011;23733;53.254;10.430;2023-07-08T08:10:42;5.23;;;2.30;;
37895;SDS011;23733;53.254;10.430;2023-07-08T08:13:09;3.43;;;2.40;;
37895;SDS011;23733;53.254;10.430;2023-07-08T08:15:36;6.57;;;2.60;;
37895;SDS011;23733;53.254;10.430;2023-07-08T08:18:03;2.90;;;2.10;;
37895;SDS011;23733;53.254;10.430;2023-07-08T08:20:29;6.43;;;2.13;;
37895;SDS011;23733;53.254;10.430;2023-07-08T08:22:56;5.07;;;2.37;;
37895;SDS011;23733;53.254;10.430;2023-07-08T08:25:23;2.80;;;2.20;;
37895;SDS011;23733;53.254;10.430;2023-07-08T08:27:49;4.93;;;2.20;;
37895;SDS011;23733;53.254;10.430;2023-07-08T08:30:17;3.97;;;2.57;;
37895;SDS011;23733;53.254;10.430;2023-07-08T08:32:43;3.67;;;2.40;;
37895;SDS011;23733;53.254;10.430;2023-07-08T08:35:09;3.27;;;2.53;;
37895;SDS011;23733;53.254;10.430;2023-07-08T08:37:35;2.87;;;2.23;;
37895;SDS011;23733;53.254;10.430;2023-07-08T08:40:01;3.63;;;2.53;;
37895;SDS011;23733;53.254;10.430;2023-07-08T08:42:30;5.15;;;2.33;;
37895;SDS011;23733;53.254;10.430;2023-07-08T08:45:00;4.53;;;2.17;;
37895;SDS011;23733;53.254;10.430;2023-07-08T08:47:38;2.75;;;2.40;;
37895;SDS011;23733;53.254;10.430;2023-07-08T08:52:50;3.13;;;2.30;;
37895;SDS011;23733;53.254;10.430;2023-07-08T08:55:20;3.83;;;2.00;;
37895;SDS011;23733;53.254;10.430;2023-07-08T08:58:02;4.27;;;2.30;;
37895;SDS011;23733;53.254;10.430;2023-07-08T09:00:53;3.45;;;2.38;;
37895;SDS011;23733;53.254;10.430;2023-07-08T09:03:26;4.82;;;2.38;;
37895;SDS011;23733;53.254;10.430;2023-07-08T09:05:54;4.07;;;2.55;;
37895;SDS011;23733;53.254;10.430;2023-07-08T09:11:00;3.47;;;2.50;;
37895;SDS011;23733;53.254;10.430;2023-07-08T09:13:31;3.55;;;2.30;;
37895;SDS011;23733;53.254;10.430;2023-07-08T09:16:01;2.97;;;2.13;;
37895;SDS011;23733;53.254;10.430;2023-07-08T09:18:30;3.03;;;2.13;;
37895;SDS011;23733;53.254;10.430;2023-07-08T09:20:58;4.97;;;2.40;;
37895;SDS011;23733;53.254;10.430;2023-07-08T09:23:31;3.38;;;2.38;;
37895;SDS011;23733;53.254;10.430;2023-07-08T09:26:00;3.67;;;2.30;;
37895;SDS011;23733;53.254;10.430;2023-07-08T09:28:38;3.05;;;2.30;;
37895;SDS011;23733;53.254;10.430;2023-07-08T09:31:05;3.03;;;2.20;;
37895;SDS011;23733;53.254;10.430;2023-07-08T09:33:32;5.63;;;2.30;;
37895;SDS011;23733;53.254;10.430;2023-07-08T09:35:59;2.97;;;2.10;;
37895;SDS011;23733;53.254;10.430;2023-07-08T09:38:26;4.43;;;2.40;;
37895;SDS011;23733;53.254;10.430;2023-07-08T09:40:52;4.40;;;2.20;;
37895;SDS011;23733;53.254;10.430;2023-07-08T09:43:25;4.60;;;2.20;;
37895;SDS011;23733;53.254;10.430;2023-07-08T09:45:51;3.70;;;2.40;;
37895;SDS011;23733;53.254;10.430;2023-07-08T09:48:25;2.83;;;2.10;;
37895;SDS011;23733;53.254;10.430;2023-07-08T09:50:52;7.68;;;2.40;;
37895;SDS011;23733;53.254;10.430;2023-07-08T09:53:19;5.10;;;2.75;;
37895;SDS011;23733;53.254;10.430;2023-07-08T09:55:46;5.13;;;2.22;;
37895;SDS011;23733;53.254;10.430;2023-07-08T09:58:15;5.57;;;2.42;;
37895;SDS011;23733;53.254;10.430;2023-07-08T10:00:44;4.05;;;2.28;;
37895;SDS011;23733;53.254;10.430;2023-07-08T10:03:19;3.08;;;2.30;;
37895;SDS011;23733;53.254;10.430;2023-07-08T10:05:47;3.28;;;2.30;;
37895;SDS011;23733;53.254;10.430;2023-07-08T10:08:15;4.05;;;2.45;;
37895;SDS011;23733;53.254;10.430;2023-07-08T10:10:42;3.00;;;2.40;;
37895;SDS011;23733;53.254;10.430;2023-07-08T10:15:55;3.80;;;2.10;;
37895;SDS011;23733;53.254;10.430;2023-07-08T10:18:24;2.95;;;2.08;;
37895;SDS011;23733;53.254;10.430;2023-07-08T10:23:24;5.40;;;2.10;;
37895;SDS011;23733;53.254;10.430;2023-07-08T10:25:55;2.88;;;2.10;;
37895;SDS011;23733;53.254;10.430;2023-07-08T10:28:25;6.32;;;2.22;;
37895;SDS011;23733;53.254;10.430;2023-07-08T10:31:02;3.20;;;2.13;;
37895;SDS011;23733;53.254;10.430;2023-07-08T10:36:30;3.97;;;2.22;;
37895;SDS011;23733;53.254;10.430;2023-07-08T10:46:37;5.07;;;2.70;;
37895;SDS011;23733;53.254;10.430;2023-07-08T10:51:39;4.38;;;2.40;;
37895;SDS011;23733;53.254;10.430;2023-07-08T10:54:25;4.40;;;2.80;;
37895;SDS011;23733;53.254;10.430;2023-07-08T10:56:54;3.30;;;2.20;;
37895;SDS011;23733;53.254;10.430;2023-07-08T11:02:15;3.05;;;2.13;;
37895;SDS011;23733;53.254;10.430;2023-07-08T11:04:47;4.00;;;2.25;;
37895;SDS011;23733;53.254;10.430;2023-07-08T11:07:31;3.90;;;2.28;;
37895;SDS011;23733;53.254;10.430;2023-07-08T11:10:00;4.63;;;1.92;;
37895;SDS011;23733;53.254;10.430;2023-07-08T11:12:31;3.15;;;2.22;;
37895;SDS011;23733;53.254;10.430;2023-07-08T11:15:02;4.30;;;2.47;;
37895;SDS011;23733;53.254;10.430;2023-07-08T11:17:31;2.60;;;2.00;;
37895;SDS011;23733;53.254;10.430;2023-07-08T11:22:31;3.50;;;1.98;;
37895;SDS011;23733;53.254;10.430;2023-07-08T11:24:57;2.78;;;2.03;;
37895;SDS011;23733;53.254;10.430;2023-07-08T11:27:31;7.78;;;2.50;;
37895;SDS011;23733;53.254;10.430;2023-07-08T11:30:17;2.83;;;2.03;;
37895;SDS011;23733;53.254;10.430;2023-07-08T11:32:51;2.72;;;2.10;;
37895;SDS011;23733;53.254;10.430;2023-07-08T11:38:11;2.70;;;2.08;;
37895;SDS011;23733;53.254;10.430;2023-07-08T11:49:38;4.78;;;2.38;;
37895;SDS011;23733;53.254;10.430;2023-07-08T11:52:13;3.88;;;2.33;;
37895;SDS011;23733;53.254;10.430;2023-07-08T11:55:03;2.80;;;2.10;;
37895;SDS011;23733;53.254;10.430;2023-07-08T11:57:46;3.50;;;2.30;;
37895;SDS011;23733;53.254;10.430;2023-07-08T12:00:40;3.13;;;1.90;;
37895;SDS011;23733;53.254;10.430;2023-07-08T12:03:18;2.58;;;2.30;;
37895;SDS011;23733;53.254;10.430;2023-07-08T12:11:28;3.97;;;2.35;;
37895;SDS011;23733;53.254;10.430;2023-07-08T12:14:08;4.70;;;2.35;;
37895;SDS011;23733;53.254;10.430;2023-07-08T12:17:13;6.90;;;2.28;;
37895;SDS011;23733;53.254;10.430;2023-07-08T12:23:02;3.20;;;2.03;;
37895;SDS011;23733;53.254;10.430;2023-07-08T12:25:32;2.60;;;2.17;;
37895;SDS011;23733;53.254;10.430;2023-07-08T12:28:21;2.47;;;2.05;;
37895;SDS011;23733;53.254;10.430;2023-07-08T12:30:49;2.40;;;1.98;;
37895;SDS011;23733;53.254;10.430;2023-07-08T12:33:32;4.88;;;2.10;;
37895;SDS011;23733;53.254;10.430;2023-07-08T12:36:23;3.25;;;2.20;;
37895;SDS011;23733;53.254;10.430;2023-07-08T12:38:54;5.53;;;2.33;;
37895;SDS011;23733;53.254;10.430;2023-07-08T12:41:53;8.30;;;2.65;;
37895;SDS011;23733;53.254;10.430;2023-07-08T12:44:25;4.88;;;2.30;;
37895;SDS011;23733;53.254;10.430;2023-07-08T12:47:06;5.47;;;2.10;;
37895;SDS011;23733;53.254;10.430;2023-07-08T12:50:17;2.30;;;2.08;;
37895;SDS011;23733;53.254;10.430;2023-07-08T12:52:46;4.72;;;2.28;;
37895;SDS011;23733;53.254;10.430;2023-07-08T12:58:23;4.50;;;2.88;;
37895;SDS011;23733;53.254;10.430;2023-07-08T13:01:29;5.60;;;2.55;;
37895;SDS011;23733;53.254;10.430;2023-07-08T13:04:27;9.40;;;2.70;;
37895;SDS011;23733;53.254;10.430;2023-07-08T13:10:25;3.25;;;2.35;;
37895;SDS011;23733;53.254;10.430;2023-07-08T13:21:07;2.90;;;2.28;;
37895;SDS011;23733;53.254;10.430;2023-07-08T13:24:10;3.45;;;2.53;;
37895;SDS011;23733;53.254;10.430;2023-07-08T13:33:53;7.20;;;2.33;;
37895;SDS011;23733;53.254;10.430;2023-07-08T13:36:52;2.75;;;2.20;;
37895;SDS011;23733;53.254;10.430;2023-07-08T13:39:37;6.30;;;2.67;;
37895;SDS011;23733;53.254;10.430;2023-07-08T13:42:34;2.78;;;2.40;;
37895;SDS011;23733;53.254;10.430;2023-07-08T13:45:47;2.67;;;2.17;;
37895;SDS011;23733;53.254;10.430;2023-07-08T13:51:38;4.03;;;2.10;;
37895;SDS011;23733;53.254;10.430;2023-07-08T14:05:23;2.40;;;2.20;;
37895;SDS011;23733;53.254;10.430;2023-07-08T14:08:22;3.42;;;2.50;;
37895;SDS011;23733;53.254;10.430;2023-07-08T14:11:23;6.00;;;2.55;;
37895;SDS011;23733;53.254;10.430;2023-07-08T14:14:23;3.53;;;3.10;;
37895;SDS011;23733;53.254;10.430;2023-07-08T14:17:04;3.75;;;2.78;;
37895;SDS011;23733;53.254;10.430;2023-07-08T14:20:14;3.35;;;2.42;;
37895;SDS011;23733;53.254;10.430;2023-07-08T14:29:42;3.00;;;2.60;;
37895;SDS011;23733;53.254;10.430;2023-07-08T14:32:35;5.03;;;2.97;;
37895;SDS011;23733;53.254;10.430;2023-07-08T14:38:23;4.65;;;3.13;;
37895;SDS011;23733;53.254;10.430;2023-07-08T14:41:10;2.63;;;2.42;;
37895;SDS011;23733;53.254;10.430;2023-07-08T14:43:39;4.10;;;2.53;;
37895;SDS011;23733;53.254;10.430;2023-07-08T14:46:31;2.67;;;2.25;;
37895;SDS011;23733;53.254;10.430;2023-07-08T14:49:16;7.45;;;2.80;;
37895;SDS011;23733;53.254;10.430;2023-07-08T14:52:28;3.42;;;2.70;;
37895;SDS011;23733;53.254;10.430;2023-07-08T15:00:59;8.75;;;2.88;;
37895;SDS011;23733;53.254;10.430;2023-07-08T15:03:55;5.07;;;2.70;;
37895;SDS011;23733;53.254;10.430;2023-07-08T15:07:17;4.07;;;3.05;;
37895;SDS011;23733;53.254;10.430;2023-07-08T15:10:24;5.90;;;2.90;;
37895;SDS011;23733;53.254;10.430;2023-07-08T15:13:04;4.38;;;3.00;;
37895;SDS011;23733;53.254;10.430;2023-07-08T15:15:58;6.07;;;2.83;;
37895;SDS011;23733;53.254;10.430;2023-07-08T15:18:47;4.40;;;2.70;;
37895;SDS011;23733;53.254;10.430;2023-07-08T15:21:50;3.22;;;2.40;;
37895;SDS011;23733;53.254;10.430;2023-07-08T15:24:34;5.43;;;2.72;;
37895;SDS011;23733;53.254;10.430;2023-07-08T15:33:08;3.85;;;2.85;;
37895;SDS011;23733;53.254;10.430;2023-07-08T15:35:40;5.72;;;2.80;;
37895;SDS011;23733;53.254;10.430;2023-07-08T15:38:07;3.92;;;2.40;;
37895;SDS011;23733;53.254;10.430;2023-07-08T15:40:33;3.05;;;2.38;;
37895;SDS011;23733;53.254;10.430;2023-07-08T15:43:01;2.97;;;2.40;;
37895;SDS011;23733;53.254;10.430;2023-07-08T15:45:29;3.75;;;2.65;;
37895;SDS011;23733;53.254;10.430;2023-07-08T15:47:58;4.43;;;2.85;;
37895;SDS011;23733;53.254;10.430;2023-07-08T15:50:26;3.90;;;2.55;;
37895;SDS011;23733;53.254;10.430;2023-07-08T15:52:53;6.57;;;2.75;;
37895;SDS011;23733;53.254;10.430;2023-07-08T15:55:23;4.82;;;2.75;;
37895;SDS011;23733;53.254;10.430;2023-07-08T15:57:53;3.90;;;2.65;;
37895;SDS011;23733;53.254;10.430;2023-07-08T16:00:30;3.38;;;2.60;;
37895;SDS011;23733;53.254;10.430;2023-07-08T16:02:59;6.40;;;2.60;;
37895;SDS011;23733;53.254;10.430;2023-07-08T16:05:27;4.53;;;2.72;;
37895;SDS011;23733;53.254;10.430;2023-07-08T16:07:54;3.63;;;2.70;;
37895;SDS011;23733;53.254;10.430;2023-07-08T16:10:21;3.92;;;2.70;;
37895;SDS011;23733;53.254;10.430;2023-07-08T16:12:50;5.25;;;2.80;;
37895;SDS011;23733;53.254;10.430;2023-07-08T16:15:19;7.10;;;2.50;;
37895;SDS011;23733;53.254;10.430;2023-07-08T16:18:04;3.85;;;2.55;;
37895;SDS011;23733;53.254;10.430;2023-07-08T16:20:35;6.53;;;3.00;;
37895;SDS011;23733;53.254;10.430;2023-07-08T16:23:01;6.47;;;3.03;;
37895;SDS011;23733;53.254;10.430;2023-07-08T16:25:29;3.25;;;2.50;;
37895;SDS011;23733;53.254;10.430;2023-07-08T16:27:57;4.05;;;2.58;;
37895;SDS011;23733;53.254;10.430;2023-07-08T16:30:25;3.83;;;2.30;;
37895;SDS011;23733;53.254;10.430;2023-07-08T16:32:52;9.77;;;2.70;;
37895;SDS011;23733;53.254;10.430;2023-07-08T16:35:19;5.57;;;2.20;;
37895;SDS011;23733;53.254;10.430;2023-07-08T16:37:46;4.45;;;2.50;;
37895;SDS011;23733;53.254;10.430;2023-07-08T16:40:15;4.20;;;2.85;;
37895;SDS011;23733;53.254;10.430;2023-07-08T16:42:43;4.03;;;2.45;;
37895;SDS011;23733;53.254;10.430;2023-07-08T16:45:12;4.18;;;2.80;;
37895;SDS011;23733;53.254;10.430;2023-07-08T16:47:41;5.32;;;2.70;;
37895;SDS011;23733;53.254;10.430;2023-07-08T16:50:07;5.93;;;2.88;;